sensor_id;sensor_type;location;lat;lon;timestamp;P1;durP1;ratioP1;P2;durP2;ratioP2
64543;SDS011;50936;51.660;5.616;2023-05-10T00:01:40;30.20;;;11.48;;
64543;SDS011;50936;51.660;5.616;2023-05-10T00:04:07;31.48;;;12.52;;
64543;SDS011;50936;51.660;5.616;2023-05-10T00:06:34;31.58;;;11.07;;
64543;SDS011;50936;51.660;5.616;2023-05-10T00:09:01;27.02;;;9.85;;
64543;SDS011;50936;51.660;5.616;2023-05-10T00:11:28;27.02;;;10.68;;
64543;SDS011;50936;51.660;5.616;2023-05-10T00:13:55;28.65;;;10.40;;
64543;SDS011;50936;51.660;5.616;2023-05-10T00:16:22;30.80;;;11.80;;
64543;SDS011;50936;51.660;5.616;2023-05-10T00:18:48;31.70;;;10.70;;
64543;SDS011;50936;51.660;5.616;2023-05-10T00:21:15;34.97;;;11.65;;
64543;SDS011;50936;51.660;5.616;2023-05-10T00:23:42;30.10;;;9.98;;
64543;SDS011;50936;51.660;5.616;2023-05-10T00:26:09;32.38;;;11.27;;
64543;SDS011;50936;51.660;5.616;2023-05-10T00:28:37;32.63;;;11.98;;
64543;SDS011;50936;51.660;5.616;2023-05-10T00:31:04;33.80;;;11.07;;
64543;SDS011;50936;51.660;5.616;2023-05-10T00:33:31;33.30;;;12.30;;
64543;SDS011;50936;51.660;5.616;2023-05-10T00:35:58;38.22;;;14.52;;
64543;SDS011;50936;51.660;5.616;2023-05-10T00:38:25;37.05;;;12.88;;
64543;SDS011;50936;51.660;5.616;2023-05-10T00:40:52;41.03;;;13.63;;
64543;SDS011;50936;51.660;5.616;2023-05-10T00:43:26;40.30;;;12.50;;
64543;SDS011;50936;51.660;5.616;2023-05-10T00:45:53;39.03;;;13.77;;
64543;SDS011;50936;51.660;5.616;2023-05-10T00:48:21;31.85;;;11.88;;
64543;SDS011;50936;51.660;5.616;2023-05-10T00:50:48;35.25;;;13.02;;
64543;SDS011;50936;51.660;5.616;2023-05-10T00:53:15;43.78;;;13.95;;
64543;SDS011;50936;51.660;5.616;2023-05-10T00:55:43;40.70;;;14.57;;
64543;SDS011;50936;51.660;5.616;2023-05-10T00:58:10;34.38;;;11.57;;
64543;SDS011;50936;51.660;5.616;2023-05-10T01:00:37;45.65;;;16.85;;
64543;SDS011;50936;51.660;5.616;2023-05-10T01:03:07;40.30;;;15.15;;
64543;SDS011;50936;51.660;5.616;2023-05-10T01:05:34;40.33;;;15.27;;
64543;SDS011;50936;51.660;5.616;2023-05-10T01:08:01;42.55;;;15.05;;
64543;SDS011;50936;51.660;5.616;2023-05-10T01:10:29;43.47;;;16.50;;
64543;SDS011;50936;51.660;5.616;2023-05-10T01:12:57;45.83;;;17.33;;
64543;SDS011;50936;51.660;5.616;2023-05-10T01:15:26;44.13;;;16.10;;
64543;SDS011;50936;51.660;5.616;2023-05-10T01:17:54;39.33;;;14.38;;
64543;SDS011;50936;51.660;5.616;2023-05-10T01:20:23;38.03;;;13.18;;
64543;SDS011;50936;51.660;5.616;2023-05-10T01:29:11;48.55;;;17.38;;
64543;SDS011;50936;51.660;5.616;2023-05-10T01:34:49;50.28;;;18.80;;
64543;SDS011;50936;51.660;5.616;2023-05-10T01:37:33;50.65;;;17.17;;
64543;SDS011;50936;51.660;5.616;2023-05-10T01:42:59;53.45;;;18.75;;
64543;SDS011;50936;51.660;5.616;2023-05-10T01:45:39;52.58;;;18.10;;
64543;SDS011;50936;51.660;5.616;2023-05-10T01:48:15;48.97;;;17.85;;
64543;SDS011;50936;51.660;5.616;2023-05-10T01:50:46;59.30;;;19.30;;
64543;SDS011;50936;51.660;5.616;2023-05-10T01:53:17;57.15;;;19.85;;
64543;SDS011;50936;51.660;5.616;2023-05-10T01:55:47;56.28;;;21.38;;
64543;SDS011;50936;51.660;5.616;2023-05-10T01:58:31;56.13;;;21.67;;
64543;SDS011;50936;51.660;5.616;2023-05-10T02:01:02;61.47;;;19.92;;
64543;SDS011;50936;51.660;5.616;2023-05-10T02:03:32;60.05;;;20.38;;
64543;SDS011;50936;51.660;5.616;2023-05-10T02:06:03;53.38;;;18.65;;
64543;SDS011;50936;51.660;5.616;2023-05-10T02:08:32;56.45;;;21.52;;
64543;SDS011;50936;51.660;5.616;2023-05-10T02:11:03;56.55;;;22.48;;
64543;SDS011;50936;51.660;5.616;2023-05-10T02:13:32;42.25;;;17.13;;
64543;SDS011;50936;51.660;5.616;2023-05-10T02:16:03;65.75;;;20.52;;
64543;SDS011;50936;51.660;5.616;2023-05-10T02:18:33;69.22;;;23.67;;
64543;SDS011;50936;51.660;5.616;2023-05-10T02:21:02;66.25;;;22.70;;
64543;SDS011;50936;51.660;5.616;2023-05-10T02:23:30;81.43;;;24.98;;
64543;SDS011;50936;51.660;5.616;2023-05-10T02:25:58;60.97;;;21.77;;
64543;SDS011;50936;51.660;5.616;2023-05-10T02:28:28;81.18;;;26.15;;
64543;SDS011;50936;51.660;5.616;2023-05-10T02:30:58;56.20;;;19.50;;
64543;SDS011;50936;51.660;5.616;2023-05-10T02:33:26;87.65;;;27.08;;
64543;SDS011;50936;51.660;5.616;2023-05-10T02:35:56;85.07;;;28.58;;
64543;SDS011;50936;51.660;5.616;2023-05-10T02:38:23;89.70;;;29.13;;
64543;SDS011;50936;51.660;5.616;2023-05-10T02:40:53;84.45;;;25.50;;
64543;SDS011;50936;51.660;5.616;2023-05-10T02:43:22;96.13;;;28.60;;
64543;SDS011;50936;51.660;5.616;2023-05-10T02:45:51;82.38;;;25.05;;
64543;SDS011;50936;51.660;5.616;2023-05-10T02:48:19;88.47;;;27.73;;
64543;SDS011;50936;51.660;5.616;2023-05-10T02:50:47;51.30;;;24.42;;
64543;SDS011;50936;51.660;5.616;2023-05-10T02:53:19;72.55;;;25.17;;
64543;SDS011;50936;51.660;5.616;2023-05-10T02:55:55;76.47;;;26.73;;
64543;SDS011;50936;51.660;5.616;2023-05-10T02:58:27;59.80;;;20.25;;
64543;SDS011;50936;51.660;5.616;2023-05-10T03:00:54;80.68;;;26.25;;
64543;SDS011;50936;51.660;5.616;2023-05-10T03:03:20;85.45;;;30.15;;
64543;SDS011;50936;51.660;5.616;2023-05-10T03:05:49;77.50;;;26.70;;
64543;SDS011;50936;51.660;5.616;2023-05-10T03:08:16;81.45;;;25.65;;
64543;SDS011;50936;51.660;5.616;2023-05-10T03:11:02;89.03;;;28.25;;
64543;SDS011;50936;51.660;5.616;2023-05-10T03:14:16;71.68;;;26.00;;
64543;SDS011;50936;51.660;5.616;2023-05-10T03:16:59;82.13;;;27.08;;
64543;SDS011;50936;51.660;5.616;2023-05-10T03:19:48;85.38;;;27.13;;
64543;SDS011;50936;51.660;5.616;2023-05-10T03:22:30;72.90;;;24.80;;
64543;SDS011;50936;51.660;5.616;2023-05-10T03:25:05;77.38;;;27.35;;
64543;SDS011;50936;51.660;5.616;2023-05-10T03:27:39;73.95;;;25.77;;
64543;SDS011;50936;51.660;5.616;2023-05-10T03:30:12;76.65;;;26.98;;
64543;SDS011;50936;51.660;5.616;2023-05-10T03:32:40;82.60;;;28.75;;
64543;SDS011;50936;51.660;5.616;2023-05-10T03:35:11;57.38;;;22.02;;
64543;SDS011;50936;51.660;5.616;2023-05-10T03:37:40;83.63;;;29.58;;
64543;SDS011;50936;51.660;5.616;2023-05-10T03:40:07;80.07;;;26.33;;
64543;SDS011;50936;51.660;5.616;2023-05-10T03:42:38;80.40;;;31.20;;
64543;SDS011;50936;51.660;5.616;2023-05-10T03:45:05;87.97;;;29.35;;
64543;SDS011;50936;51.660;5.616;2023-05-10T03:47:33;82.65;;;27.02;;
64543;SDS011;50936;51.660;5.616;2023-05-10T03:50:00;90.28;;;28.10;;
64543;SDS011;50936;51.660;5.616;2023-05-10T03:52:28;79.80;;;26.52;;
64543;SDS011;50936;51.660;5.616;2023-05-10T03:54:55;88.90;;;29.58;;
64543;SDS011;50936;51.660;5.616;2023-05-10T03:57:23;81.55;;;28.42;;
64543;SDS011;50936;51.660;5.616;2023-05-10T03:59:50;73.68;;;26.30;;
64543;SDS011;50936;51.660;5.616;2023-05-10T04:02:16;53.70;;;21.58;;
64543;SDS011;50936;51.660;5.616;2023-05-10T04:04:43;81.25;;;27.15;;
64543;SDS011;50936;51.660;5.616;2023-05-10T04:07:10;80.88;;;27.05;;
64543;SDS011;50936;51.660;5.616;2023-05-10T04:09:37;82.78;;;29.55;;
64543;SDS011;50936;51.660;5.616;2023-05-10T04:12:04;85.53;;;28.98;;
64543;SDS011;50936;51.660;5.616;2023-05-10T04:14:33;66.43;;;23.63;;
64543;SDS011;50936;51.660;5.616;2023-05-10T04:17:01;76.55;;;26.13;;
64543;SDS011;50936;51.660;5.616;2023-05-10T04:19:31;79.45;;;27.13;;
64543;SDS011;50936;51.660;5.616;2023-05-10T04:21:58;76.38;;;28.23;;
64543;SDS011;50936;51.660;5.616;2023-05-10T04:24:26;83.13;;;30.08;;
64543;SDS011;50936;51.660;5.616;2023-05-10T04:26:53;72.13;;;27.15;;
64543;SDS011;50936;51.660;5.616;2023-05-10T04:29:23;78.32;;;28.73;;
64543;SDS011;50936;51.660;5.616;2023-05-10T04:31:50;69.43;;;23.88;;
64543;SDS011;50936;51.660;5.616;2023-05-10T04:34:17;73.18;;;25.70;;
64543;SDS011;50936;51.660;5.616;2023-05-10T04:36:44;58.45;;;22.75;;
64543;SDS011;50936;51.660;5.616;2023-05-10T04:39:11;68.78;;;24.27;;
64543;SDS011;50936;51.660;5.616;2023-05-10T04:41:37;56.05;;;20.75;;
64543;SDS011;50936;51.660;5.616;2023-05-10T04:44:04;55.88;;;19.90;;
64543;SDS011;50936;51.660;5.616;2023-05-10T04:46:32;54.50;;;18.88;;
64543;SDS011;50936;51.660;5.616;2023-05-10T04:48:59;49.85;;;18.13;;
64543;SDS011;50936;51.660;5.616;2023-05-10T04:51:26;58.40;;;21.48;;
64543;SDS011;50936;51.660;5.616;2023-05-10T04:53:53;56.22;;;19.92;;
64543;SDS011;50936;51.660;5.616;2023-05-10T04:58:58;53.75;;;18.25;;
64543;SDS011;50936;51.660;5.616;2023-05-10T05:01:41;46.50;;;17.70;;
64543;SDS011;50936;51.660;5.616;2023-05-10T05:04:08;51.92;;;18.42;;
64543;SDS011;50936;51.660;5.616;2023-05-10T05:06:35;37.30;;;17.98;;
64543;SDS011;50936;51.660;5.616;2023-05-10T05:09:01;55.15;;;20.58;;
64543;SDS011;50936;51.660;5.616;2023-05-10T05:11:29;47.30;;;17.23;;
64543;SDS011;50936;51.660;5.616;2023-05-10T05:13:56;40.03;;;14.98;;
64543;SDS011;50936;51.660;5.616;2023-05-10T05:16:25;38.97;;;16.92;;
64543;SDS011;50936;51.660;5.616;2023-05-10T05:18:53;54.38;;;21.42;;
64543;SDS011;50936;51.660;5.616;2023-05-10T05:21:19;57.67;;;20.02;;
64543;SDS011;50936;51.660;5.616;2023-05-10T05:23:47;52.20;;;19.10;;
64543;SDS011;50936;51.660;5.616;2023-05-10T05:26:14;41.90;;;15.55;;
64543;SDS011;50936;51.660;5.616;2023-05-10T05:28:41;50.97;;;19.10;;
64543;SDS011;50936;51.660;5.616;2023-05-10T05:31:08;54.03;;;18.17;;
64543;SDS011;50936;51.660;5.616;2023-05-10T05:33:35;45.10;;;18.38;;
64543;SDS011;50936;51.660;5.616;2023-05-10T05:36:03;44.00;;;17.00;;
64543;SDS011;50936;51.660;5.616;2023-05-10T05:38:32;45.35;;;14.85;;
64543;SDS011;50936;51.660;5.616;2023-05-10T05:40:59;51.10;;;17.17;;
64543;SDS011;50936;51.660;5.616;2023-05-10T05:43:26;55.90;;;19.92;;
64543;SDS011;50936;51.660;5.616;2023-05-10T05:45:53;41.78;;;16.38;;
64543;SDS011;50936;51.660;5.616;2023-05-10T05:48:20;49.05;;;19.27;;
64543;SDS011;50936;51.660;5.616;2023-05-10T05:50:47;51.78;;;20.13;;
64543;SDS011;50936;51.660;5.616;2023-05-10T05:53:14;32.15;;;15.63;;
64543;SDS011;50936;51.660;5.616;2023-05-10T05:55:50;55.60;;;18.85;;
64543;SDS011;50936;51.660;5.616;2023-05-10T05:58:22;55.78;;;20.50;;
64543;SDS011;50936;51.660;5.616;2023-05-10T06:00:50;50.55;;;18.08;;
64543;SDS011;50936;51.660;5.616;2023-05-10T06:03:18;48.20;;;19.60;;
64543;SDS011;50936;51.660;5.616;2023-05-10T06:05:46;53.83;;;19.38;;
64543;SDS011;50936;51.660;5.616;2023-05-10T06:08:13;57.38;;;20.83;;
64543;SDS011;50936;51.660;5.616;2023-05-10T06:10:40;53.90;;;18.33;;
64543;SDS011;50936;51.660;5.616;2023-05-10T06:13:07;49.88;;;17.65;;
64543;SDS011;50936;51.660;5.616;2023-05-10T06:15:34;44.47;;;16.40;;
64543;SDS011;50936;51.660;5.616;2023-05-10T06:18:01;30.35;;;12.02;;
64543;SDS011;50936;51.660;5.616;2023-05-10T06:20:28;48.38;;;19.80;;
64543;SDS011;50936;51.660;5.616;2023-05-10T06:22:55;50.75;;;18.83;;
64543;SDS011;50936;51.660;5.616;2023-05-10T06:25:22;48.78;;;17.38;;
64543;SDS011;50936;51.660;5.616;2023-05-10T06:27:50;48.90;;;19.05;;
64543;SDS011;50936;51.660;5.616;2023-05-10T06:30:22;35.42;;;14.88;;
64543;SDS011;50936;51.660;5.616;2023-05-10T06:32:53;50.83;;;16.70;;
64543;SDS011;50936;51.660;5.616;2023-05-10T06:35:21;40.92;;;15.20;;
64543;SDS011;50936;51.660;5.616;2023-05-10T06:37:48;45.72;;;17.85;;
64543;SDS011;50936;51.660;5.616;2023-05-10T06:40:16;39.97;;;15.20;;
64543;SDS011;50936;51.660;5.616;2023-05-10T06:42:43;41.42;;;15.48;;
64543;SDS011;50936;51.660;5.616;2023-05-10T06:45:11;34.30;;;13.32;;
64543;SDS011;50936;51.660;5.616;2023-05-10T06:47:39;27.55;;;12.75;;
64543;SDS011;50936;51.660;5.616;2023-05-10T06:50:10;39.42;;;16.13;;
64543;SDS011;50936;51.660;5.616;2023-05-10T06:52:40;48.83;;;19.33;;
64543;SDS011;50936;51.660;5.616;2023-05-10T06:55:07;49.83;;;17.48;;
64543;SDS011;50936;51.660;5.616;2023-05-10T06:57:35;49.78;;;18.83;;
64543;SDS011;50936;51.660;5.616;2023-05-10T07:00:02;45.63;;;17.90;;
64543;SDS011;50936;51.660;5.616;2023-05-10T07:02:32;44.05;;;15.68;;
64543;SDS011;50936;51.660;5.616;2023-05-10T07:04:59;34.65;;;13.68;;
64543;SDS011;50936;51.660;5.616;2023-05-10T07:07:40;45.50;;;17.92;;
64543;SDS011;50936;51.660;5.616;2023-05-10T07:10:07;48.45;;;19.45;;
64543;SDS011;50936;51.660;5.616;2023-05-10T07:12:35;41.58;;;16.63;;
64543;SDS011;50936;51.660;5.616;2023-05-10T07:15:02;42.60;;;17.17;;
64543;SDS011;50936;51.660;5.616;2023-05-10T07:17:29;44.92;;;18.30;;
64543;SDS011;50936;51.660;5.616;2023-05-10T07:19:56;47.90;;;18.75;;
64543;SDS011;50936;51.660;5.616;2023-05-10T07:22:23;49.92;;;19.15;;
64543;SDS011;50936;51.660;5.616;2023-05-10T07:24:50;47.05;;;17.40;;
64543;SDS011;50936;51.660;5.616;2023-05-10T07:27:17;43.28;;;16.42;;
64543;SDS011;50936;51.660;5.616;2023-05-10T07:29:44;40.53;;;16.83;;
64543;SDS011;50936;51.660;5.616;2023-05-10T07:32:11;44.08;;;18.48;;
64543;SDS011;50936;51.660;5.616;2023-05-10T07:34:37;47.55;;;20.65;;
64543;SDS011;50936;51.660;5.616;2023-05-10T07:37:04;49.53;;;19.77;;
64543;SDS011;50936;51.660;5.616;2023-05-10T07:39:32;47.50;;;18.63;;
64543;SDS011;50936;51.660;5.616;2023-05-10T07:41:59;49.83;;;20.75;;
64543;SDS011;50936;51.660;5.616;2023-05-10T07:44:26;45.13;;;18.67;;
64543;SDS011;50936;51.660;5.616;2023-05-10T07:46:52;47.40;;;20.33;;
64543;SDS011;50936;51.660;5.616;2023-05-10T07:49:19;39.65;;;17.17;;
64543;SDS011;50936;51.660;5.616;2023-05-10T07:51:46;41.72;;;17.58;;
64543;SDS011;50936;51.660;5.616;2023-05-10T07:54:13;47.33;;;20.08;;
64543;SDS011;50936;51.660;5.616;2023-05-10T07:56:40;50.85;;;20.98;;
64543;SDS011;50936;51.660;5.616;2023-05-10T07:59:14;43.92;;;19.40;;
64543;SDS011;50936;51.660;5.616;2023-05-10T08:01:43;45.80;;;19.33;;
64543;SDS011;50936;51.660;5.616;2023-05-10T08:04:11;45.42;;;20.10;;
64543;SDS011;50936;51.660;5.616;2023-05-10T08:06:39;30.60;;;13.05;;
64543;SDS011;50936;51.660;5.616;2023-05-10T08:09:06;28.25;;;13.35;;
64543;SDS011;50936;51.660;5.616;2023-05-10T08:11:34;40.65;;;18.08;;
64543;SDS011;50936;51.660;5.616;2023-05-10T08:14:01;41.05;;;17.70;;
64543;SDS011;50936;51.660;5.616;2023-05-10T08:16:28;34.70;;;13.88;;
64543;SDS011;50936;51.660;5.616;2023-05-10T08:18:55;44.45;;;16.67;;
64543;SDS011;50936;51.660;5.616;2023-05-10T08:21:22;42.17;;;17.75;;
64543;SDS011;50936;51.660;5.616;2023-05-10T08:23:49;44.15;;;20.08;;
64543;SDS011;50936;51.660;5.616;2023-05-10T08:26:16;46.72;;;19.00;;
64543;SDS011;50936;51.660;5.616;2023-05-10T08:28:43;45.80;;;17.58;;
64543;SDS011;50936;51.660;5.616;2023-05-10T08:31:10;44.60;;;19.05;;
64543;SDS011;50936;51.660;5.616;2023-05-10T08:33:36;38.88;;;16.17;;
64543;SDS011;50936;51.660;5.616;2023-05-10T08:36:03;36.97;;;19.60;;
64543;SDS011;50936;51.660;5.616;2023-05-10T08:38:30;41.72;;;17.23;;
64543;SDS011;50936;51.660;5.616;2023-05-10T08:40:57;33.35;;;17.90;;
64543;SDS011;50936;51.660;5.616;2023-05-10T08:43:29;40.92;;;16.80;;
64543;SDS011;50936;51.660;5.616;2023-05-10T08:45:56;32.65;;;15.50;;
64543;SDS011;50936;51.660;5.616;2023-05-10T08:48:30;32.97;;;16.02;;
64543;SDS011;50936;51.660;5.616;2023-05-10T08:51:01;32.95;;;14.90;;
64543;SDS011;50936;51.660;5.616;2023-05-10T08:53:30;40.40;;;18.73;;
64543;SDS011;50936;51.660;5.616;2023-05-10T08:56:03;35.85;;;15.82;;
64543;SDS011;50936;51.660;5.616;2023-05-10T08:58:30;39.22;;;17.83;;
64543;SDS011;50936;51.660;5.616;2023-05-10T09:00:59;32.38;;;14.98;;
64543;SDS011;50936;51.660;5.616;2023-05-10T09:03:27;36.28;;;18.05;;
64543;SDS011;50936;51.660;5.616;2023-05-10T09:05:54;32.75;;;14.40;;
64543;SDS011;50936;51.660;5.616;2023-05-10T09:08:25;38.72;;;17.58;;
64543;SDS011;50936;51.660;5.616;2023-05-10T09:10:54;34.60;;;14.00;;
64543;SDS011;50936;51.660;5.616;2023-05-10T09:13:22;34.72;;;15.35;;
64543;SDS011;50936;51.660;5.616;2023-05-10T09:15:51;34.40;;;15.75;;
64543;SDS011;50936;51.660;5.616;2023-05-10T09:18:19;34.28;;;15.80;;
64543;SDS011;50936;51.660;5.616;2023-05-10T09:20:46;31.90;;;15.38;;
64543;SDS011;50936;51.660;5.616;2023-05-10T09:23:15;30.40;;;15.40;;
64543;SDS011;50936;51.660;5.616;2023-05-10T09:25:42;30.80;;;15.10;;
64543;SDS011;50936;51.660;5.616;2023-05-10T09:28:09;29.45;;;14.32;;
64543;SDS011;50936;51.660;5.616;2023-05-10T09:30:36;22.50;;;11.07;;
64543;SDS011;50936;51.660;5.616;2023-05-10T09:33:03;25.38;;;11.77;;
64543;SDS011;50936;51.660;5.616;2023-05-10T09:35:31;30.80;;;15.52;;
64543;SDS011;50936;51.660;5.616;2023-05-10T09:38:00;27.95;;;13.77;;
64543;SDS011;50936;51.660;5.616;2023-05-10T09:40:30;26.15;;;12.98;;
64543;SDS011;50936;51.660;5.616;2023-05-10T09:43:02;23.42;;;12.40;;
64543;SDS011;50936;51.660;5.616;2023-05-10T09:45:33;24.30;;;12.98;;
64543;SDS011;50936;51.660;5.616;2023-05-10T09:50:32;24.10;;;11.98;;
64543;SDS011;50936;51.660;5.616;2023-05-10T09:53:01;20.48;;;10.27;;
64543;SDS011;50936;51.660;5.616;2023-05-10T09:55:48;19.40;;;9.27;;
64543;SDS011;50936;51.660;5.616;2023-05-10T09:58:17;22.23;;;12.60;;
64543;SDS011;50936;51.660;5.616;2023-05-10T10:00:45;17.45;;;8.02;;
64543;SDS011;50936;51.660;5.616;2023-05-10T10:03:15;26.23;;;12.13;;
64543;SDS011;50936;51.660;5.616;2023-05-10T10:05:47;20.67;;;9.60;;
64543;SDS011;50936;51.660;5.616;2023-05-10T10:08:15;25.80;;;11.65;;
64543;SDS011;50936;51.660;5.616;2023-05-10T10:10:43;20.63;;;11.88;;
64543;SDS011;50936;51.660;5.616;2023-05-10T10:13:12;19.38;;;11.50;;
64543;SDS011;50936;51.660;5.616;2023-05-10T10:15:40;17.15;;;10.02;;
64543;SDS011;50936;51.660;5.616;2023-05-10T10:18:13;21.25;;;11.90;;
64543;SDS011;50936;51.660;5.616;2023-05-10T10:20:42;20.05;;;11.50;;
64543;SDS011;50936;51.660;5.616;2023-05-10T10:23:09;20.48;;;11.90;;
64543;SDS011;50936;51.660;5.616;2023-05-10T10:25:36;22.48;;;11.65;;
64543;SDS011;50936;51.660;5.616;2023-05-10T10:28:15;23.55;;;12.77;;
64543;SDS011;50936;51.660;5.616;2023-05-10T10:31:03;17.15;;;10.48;;
64543;SDS011;50936;51.660;5.616;2023-05-10T10:34:01;18.52;;;9.55;;
64543;SDS011;50936;51.660;5.616;2023-05-10T10:37:07;18.88;;;11.13;;
64543;SDS011;50936;51.660;5.616;2023-05-10T10:39:31;20.02;;;11.48;;
64543;SDS011;50936;51.660;5.616;2023-05-10T10:41:59;19.33;;;12.05;;
64543;SDS011;50936;51.660;5.616;2023-05-10T10:55:17;20.75;;;12.68;;
64543;SDS011;50936;51.660;5.616;2023-05-10T10:57:49;21.42;;;12.02;;
64543;SDS011;50936;51.660;5.616;2023-05-10T11:00:30;24.85;;;12.95;;
64543;SDS011;50936;51.660;5.616;2023-05-10T11:03:03;26.27;;;14.80;;
64543;SDS011;50936;51.660;5.616;2023-05-10T11:08:19;22.92;;;12.32;;
64543;SDS011;50936;51.660;5.616;2023-05-10T11:13:34;23.55;;;12.73;;
64543;SDS011;50936;51.660;5.616;2023-05-10T11:21:34;23.98;;;11.88;;
64543;SDS011;50936;51.660;5.616;2023-05-10T11:24:37;27.63;;;12.48;;
64543;SDS011;50936;51.660;5.616;2023-05-10T11:27:05;26.08;;;13.30;;
64543;SDS011;50936;51.660;5.616;2023-05-10T11:29:32;28.20;;;14.63;;
64543;SDS011;50936;51.660;5.616;2023-05-10T11:31:59;25.40;;;14.20;;
64543;SDS011;50936;51.660;5.616;2023-05-10T11:34:30;26.38;;;14.90;;
64543;SDS011;50936;51.660;5.616;2023-05-10T11:37:00;26.48;;;14.02;;
64543;SDS011;50936;51.660;5.616;2023-05-10T11:39:28;26.80;;;14.05;;
64543;SDS011;50936;51.660;5.616;2023-05-10T11:41:57;23.40;;;11.95;;
64543;SDS011;50936;51.660;5.616;2023-05-10T11:44:29;23.73;;;12.70;;
64543;SDS011;50936;51.660;5.616;2023-05-10T11:46:59;23.42;;;13.02;;
64543;SDS011;50936;51.660;5.616;2023-05-10T11:49:27;26.42;;;13.45;;
64543;SDS011;50936;51.660;5.616;2023-05-10T11:52:03;23.95;;;13.40;;
64543;SDS011;50936;51.660;5.616;2023-05-10T11:54:34;23.60;;;12.68;;
64543;SDS011;50936;51.660;5.616;2023-05-10T11:57:01;18.65;;;10.45;;
64543;SDS011;50936;51.660;5.616;2023-05-10T11:59:29;17.95;;;10.82;;
64543;SDS011;50936;51.660;5.616;2023-05-10T12:01:56;12.07;;;7.35;;
64543;SDS011;50936;51.660;5.616;2023-05-10T12:04:23;15.02;;;8.57;;
64543;SDS011;50936;51.660;5.616;2023-05-10T12:06:51;10.40;;;6.25;;
64543;SDS011;50936;51.660;5.616;2023-05-10T12:09:18;12.27;;;7.50;;
64543;SDS011;50936;51.660;5.616;2023-05-10T12:12:05;13.90;;;7.65;;
64543;SDS011;50936;51.660;5.616;2023-05-10T12:14:33;14.23;;;8.05;;
64543;SDS011;50936;51.660;5.616;2023-05-10T12:17:01;13.73;;;7.95;;
64543;SDS011;50936;51.660;5.616;2023-05-10T12:19:29;15.32;;;8.50;;
64543;SDS011;50936;51.660;5.616;2023-05-10T12:22:06;12.57;;;8.70;;
64543;SDS011;50936;51.660;5.616;2023-05-10T12:24:34;16.90;;;9.98;;
64543;SDS011;50936;51.660;5.616;2023-05-10T12:27:09;16.88;;;9.98;;
64543;SDS011;50936;51.660;5.616;2023-05-10T12:29:41;14.75;;;10.00;;
64543;SDS011;50936;51.660;5.616;2023-05-10T12:32:10;18.17;;;9.90;;
64543;SDS011;50936;51.660;5.616;2023-05-10T12:34:37;16.60;;;10.20;;
64543;SDS011;50936;51.660;5.616;2023-05-10T12:37:05;16.02;;;10.25;;
64543;SDS011;50936;51.660;5.616;2023-05-10T12:39:42;18.80;;;10.75;;
64543;SDS011;50936;51.660;5.616;2023-05-10T12:42:11;21.88;;;12.07;;
64543;SDS011;50936;51.660;5.616;2023-05-10T12:44:38;19.58;;;11.40;;
64543;SDS011;50936;51.660;5.616;2023-05-10T12:47:06;20.60;;;11.40;;
64543;SDS011;50936;51.660;5.616;2023-05-10T12:49:33;19.52;;;10.98;;
64543;SDS011;50936;51.660;5.616;2023-05-10T12:52:00;17.85;;;10.55;;
64543;SDS011;50936;51.660;5.616;2023-05-10T12:54:27;18.70;;;11.00;;
64543;SDS011;50936;51.660;5.616;2023-05-10T12:56:54;18.70;;;10.95;;
64543;SDS011;50936;51.660;5.616;2023-05-10T12:59:21;19.67;;;11.38;;
64543;SDS011;50936;51.660;5.616;2023-05-10T13:01:49;19.45;;;11.10;;
64543;SDS011;50936;51.660;5.616;2023-05-10T13:04:16;19.98;;;10.50;;
64543;SDS011;50936;51.660;5.616;2023-05-10T13:06:43;16.85;;;9.23;;
64543;SDS011;50936;51.660;5.616;2023-05-10T13:09:10;16.90;;;9.40;;
64543;SDS011;50936;51.660;5.616;2023-05-10T13:11:36;17.52;;;8.38;;
64543;SDS011;50936;51.660;5.616;2023-05-10T13:14:04;19.15;;;10.40;;
64543;SDS011;50936;51.660;5.616;2023-05-10T13:16:31;15.43;;;7.97;;
64543;SDS011;50936;51.660;5.616;2023-05-10T13:18:58;13.73;;;7.15;;
64543;SDS011;50936;51.660;5.616;2023-05-10T13:21:26;11.98;;;6.40;;
64543;SDS011;50936;51.660;5.616;2023-05-10T13:23:54;10.50;;;5.45;;
64543;SDS011;50936;51.660;5.616;2023-05-10T13:26:22;4.10;;;2.33;;
64543;SDS011;50936;51.660;5.616;2023-05-10T13:28:49;6.75;;;3.72;;
64543;SDS011;50936;51.660;5.616;2023-05-10T13:31:18;8.00;;;4.13;;
64543;SDS011;50936;51.660;5.616;2023-05-10T13:33:45;6.32;;;3.83;;
64543;SDS011;50936;51.660;5.616;2023-05-10T13:36:11;6.93;;;4.18;;
64543;SDS011;50936;51.660;5.616;2023-05-10T13:38:38;8.32;;;4.03;;
64543;SDS011;50936;51.660;5.616;2023-05-10T13:41:05;6.18;;;4.05;;
64543;SDS011;50936;51.660;5.616;2023-05-10T13:43:32;6.97;;;4.30;;
64543;SDS011;50936;51.660;5.616;2023-05-10T13:45:59;8.23;;;5.03;;
64543;SDS011;50936;51.660;5.616;2023-05-10T13:48:26;9.45;;;5.07;;
64543;SDS011;50936;51.660;5.616;2023-05-10T13:50:53;10.23;;;5.78;;
64543;SDS011;50936;51.660;5.616;2023-05-10T13:53:20;12.25;;;6.45;;
64543;SDS011;50936;51.660;5.616;2023-05-10T13:55:47;17.90;;;8.30;;
64543;SDS011;50936;51.660;5.616;2023-05-10T13:58:15;22.05;;;9.80;;
64543;SDS011;50936;51.660;5.616;2023-05-10T14:00:42;15.82;;;8.77;;
64543;SDS011;50936;51.660;5.616;2023-05-10T14:03:09;13.90;;;8.05;;
64543;SDS011;50936;51.660;5.616;2023-05-10T14:05:37;12.63;;;7.82;;
64543;SDS011;50936;51.660;5.616;2023-05-10T14:08:04;15.20;;;8.57;;
64543;SDS011;50936;51.660;5.616;2023-05-10T14:10:31;15.10;;;9.25;;
64543;SDS011;50936;51.660;5.616;2023-05-10T14:12:58;19.02;;;11.15;;
64543;SDS011;50936;51.660;5.616;2023-05-10T14:15:25;17.80;;;10.25;;
64543;SDS011;50936;51.660;5.616;2023-05-10T14:17:52;15.88;;;9.23;;
64543;SDS011;50936;51.660;5.616;2023-05-10T14:20:19;16.55;;;10.65;;
64543;SDS011;50936;51.660;5.616;2023-05-10T14:22:46;15.95;;;8.93;;
64543;SDS011;50936;51.660;5.616;2023-05-10T14:25:13;14.18;;;9.18;;
64543;SDS011;50936;51.660;5.616;2023-05-10T14:27:41;17.98;;;9.25;;
64543;SDS011;50936;51.660;5.616;2023-05-10T14:30:08;17.65;;;11.05;;
64543;SDS011;50936;51.660;5.616;2023-05-10T14:32:35;18.48;;;11.07;;
64543;SDS011;50936;51.660;5.616;2023-05-10T14:35:05;17.98;;;10.55;;
64543;SDS011;50936;51.660;5.616;2023-05-10T14:37:36;19.13;;;11.68;;
64543;SDS011;50936;51.660;5.616;2023-05-10T14:40:03;17.88;;;10.90;;
64543;SDS011;50936;51.660;5.616;2023-05-10T14:42:30;17.60;;;9.55;;
64543;SDS011;50936;51.660;5.616;2023-05-10T14:44:58;18.13;;;11.30;;
64543;SDS011;50936;51.660;5.616;2023-05-10T14:47:24;21.27;;;13.18;;
64543;SDS011;50936;51.660;5.616;2023-05-10T14:49:51;21.27;;;13.48;;
64543;SDS011;50936;51.660;5.616;2023-05-10T14:52:18;21.08;;;13.18;;
64543;SDS011;50936;51.660;5.616;2023-05-10T14:54:45;23.00;;;13.20;;
64543;SDS011;50936;51.660;5.616;2023-05-10T14:57:12;23.98;;;14.45;;
64543;SDS011;50936;51.660;5.616;2023-05-10T14:59:39;25.17;;;15.00;;
64543;SDS011;50936;51.660;5.616;2023-05-10T15:02:06;22.77;;;15.07;;
64543;SDS011;50936;51.660;5.616;2023-05-10T15:04:35;25.55;;;15.98;;
64543;SDS011;50936;51.660;5.616;2023-05-10T15:07:02;28.60;;;16.30;;
64543;SDS011;50936;51.660;5.616;2023-05-10T15:09:29;28.05;;;16.08;;
64543;SDS011;50936;51.660;5.616;2023-05-10T15:11:56;27.52;;;16.27;;
64543;SDS011;50936;51.660;5.616;2023-05-10T15:14:23;28.00;;;16.60;;